createdAt,value
2022-10-28T00:01:25.811Z,16.28
2022-10-28T00:03:57.273Z,16.18
2022-10-28T00:06:28.731Z,16.16
2022-10-28T00:08:55.834Z,16.10
2022-10-28T00:11:25.508Z,16.11
2022-10-28T00:13:56.812Z,16.16
2022-10-28T00:16:28.305Z,16.11
2022-10-28T00:18:55.248Z,16.08
2022-10-28T00:21:24.608Z,16.07
2022-10-28T00:23:51.242Z,16.15
2022-10-28T00:26:22.797Z,16.19
2022-10-28T00:28:51.221Z,16.33
2022-10-28T00:31:20.979Z,16.31
2022-10-28T00:33:47.724Z,16.35
2022-10-28T00:36:17.041Z,16.39
2022-10-28T00:38:44.977Z,16.48
2022-10-28T00:41:13.500Z,16.44
2022-10-28T00:43:42.866Z,16.47
2022-10-28T00:46:25.583Z,16.47
2022-10-28T00:48:59.633Z,16.65
2022-10-28T00:51:26.599Z,16.59
2022-10-28T00:53:54.271Z,16.53
2022-10-28T00:56:21.109Z,16.45
2022-10-28T00:58:48.691Z,16.56
2022-10-28T01:01:15.138Z,16.47
2022-10-28T01:03:41.585Z,16.54
2022-10-28T01:06:08.570Z,16.52
2022-10-28T01:08:35.041Z,16.55
2022-10-28T01:11:16.568Z,16.58
2022-10-28T01:14:00.208Z,16.56
2022-10-28T01:16:34.432Z,16.56
2022-10-28T01:19:05.936Z,16.59
2022-10-28T01:21:54.391Z,16.56
2022-10-28T01:24:52.825Z,16.60
2022-10-28T01:27:38.115Z,16.59
2022-10-28T01:30:14.832Z,16.52
2022-10-28T01:33:14.957Z,16.51
2022-10-28T01:35:52.711Z,16.48
2022-10-28T01:38:33.307Z,16.48
2022-10-28T01:41:16.591Z,16.41
2022-10-28T01:44:21.675Z,16.33
2022-10-28T01:46:56.392Z,16.37
2022-10-28T01:49:26.240Z,16.34
2022-10-28T01:51:59.713Z,16.12
2022-10-28T01:54:28.094Z,16.06
2022-10-28T01:56:56.681Z,15.84
2022-10-28T01:59:25.756Z,16.08
2022-10-28T02:01:52.321Z,15.94
2022-10-28T02:04:18.831Z,15.92
2022-10-28T02:06:48.554Z,16.08
2022-10-28T02:09:38.066Z,16.16
2022-10-28T02:16:05.166Z,16.19
2022-10-28T02:18:43.387Z,16.07
2022-10-28T02:21:21.545Z,16.03
2022-10-28T02:24:27.365Z,15.97
2022-10-28T02:27:04.977Z,15.99
2022-10-28T02:29:37.541Z,16.11
2022-10-28T02:32:16.117Z,16.13
2022-10-28T02:34:46.565Z,16.04
2022-10-28T02:37:22.620Z,16.14
2022-10-28T02:39:52.435Z,16.27
2022-10-28T02:42:24.126Z,16.33
2022-10-28T02:44:56.404Z,16.14
2022-10-28T02:47:26.888Z,16.28
2022-10-28T02:49:57.098Z,16.33
2022-10-28T02:52:25.725Z,16.10
2022-10-28T02:54:59.799Z,16.22
2022-10-28T02:57:28.660Z,16.43
2022-10-28T02:59:58.042Z,16.47
2022-10-28T03:02:25.058Z,16.55
2022-10-28T03:04:51.581Z,16.63
2022-10-28T03:07:18.325Z,16.75
2022-10-28T03:09:44.752Z,16.78
2022-10-28T03:12:11.418Z,16.82
2022-10-28T03:14:38.541Z,16.65
2022-10-28T03:17:04.996Z,16.74
2022-10-28T03:19:31.405Z,16.84
2022-10-28T03:21:57.858Z,16.85
2022-10-28T03:24:24.350Z,16.63
2022-10-28T03:26:50.922Z,16.69
2022-10-28T03:29:17.425Z,16.65
2022-10-28T03:31:43.924Z,16.59
2022-10-28T03:34:10.333Z,16.80
2022-10-28T03:36:36.772Z,16.86
2022-10-28T03:39:03.314Z,16.82
2022-10-28T03:41:29.943Z,16.84
2022-10-28T03:43:56.670Z,16.85
2022-10-28T03:46:23.442Z,16.92
2022-10-28T03:48:50.003Z,16.81
2022-10-28T03:51:16.421Z,16.63
2022-10-28T03:53:42.909Z,16.54
2022-10-28T03:56:09.534Z,16.57
2022-10-28T03:58:38.784Z,16.82
2022-10-28T04:01:08.451Z,16.88
2022-10-28T04:03:35.115Z,16.85
2022-10-28T04:06:01.493Z,16.83
2022-10-28T04:08:28.122Z,16.60
2022-10-28T04:10:54.687Z,16.65
2022-10-28T04:13:21.327Z,16.64
2022-10-28T04:15:47.730Z,16.54
2022-10-28T04:18:14.160Z,16.60
2022-10-28T04:20:40.760Z,16.63
2022-10-28T04:23:07.612Z,16.49
2022-10-28T04:25:34.395Z,16.25
2022-10-28T04:28:01.033Z,16.22
2022-10-28T04:30:27.870Z,16.42
2022-10-28T04:32:56.226Z,16.48
2022-10-28T04:35:23.681Z,16.57
2022-10-28T04:37:50.266Z,16.37
2022-10-28T04:40:18.853Z,16.32
2022-10-28T04:42:49.502Z,16.23
2022-10-28T04:45:17.753Z,16.28
2022-10-28T04:47:44.534Z,16.35
2022-10-28T04:50:11.282Z,16.35
2022-10-28T04:52:40.208Z,16.30
2022-10-28T04:55:08.389Z,16.25
2022-10-28T04:57:34.917Z,16.17
2022-10-28T05:00:01.681Z,16.05
2022-10-28T05:02:29.335Z,16.06
2022-10-28T05:05:11.529Z,15.93
2022-10-28T05:07:45.377Z,15.84
2022-10-28T05:10:20.490Z,15.74
2022-10-28T05:13:01.537Z,15.74
2022-10-28T05:15:28.575Z,15.86
2022-10-28T05:17:56.198Z,15.72
2022-10-28T05:20:31.658Z,15.72
2022-10-28T05:23:02.593Z,15.69
2022-10-28T05:25:30.404Z,15.38
2022-10-28T05:34:13.704Z,15.83
2022-10-28T05:37:16.408Z,15.74
2022-10-28T05:40:10.177Z,15.79
2022-10-28T05:42:47.822Z,15.60
2022-10-28T05:48:29.033Z,15.60
2022-10-28T05:51:01.609Z,15.47
2022-10-28T05:56:32.163Z,15.79
2022-10-28T06:02:28.548Z,15.72
2022-10-28T06:04:59.586Z,15.75
2022-10-28T06:07:26.182Z,15.82
2022-10-28T06:09:53.227Z,15.76
2022-10-28T06:12:18.174Z,15.73
2022-10-28T06:14:50.651Z,15.66
2022-10-28T06:17:17.735Z,15.79
2022-10-28T06:19:48.427Z,15.74
2022-10-28T06:22:36.164Z,15.73
2022-10-28T06:25:13.889Z,15.88
2022-10-28T06:28:12.158Z,15.86
2022-10-28T06:31:14.949Z,15.90
2022-10-28T06:34:02.306Z,16.02
2022-10-28T06:36:31.721Z,16.03
2022-10-28T06:39:05.156Z,16.06
2022-10-28T06:41:54.761Z,16.12
2022-10-28T06:44:25.139Z,16.14
2022-10-28T06:46:55.605Z,16.15
2022-10-28T06:49:25.642Z,16.20
2022-10-28T06:51:54.219Z,16.24
2022-10-28T06:54:22.934Z,16.23
2022-10-28T06:57:01.670Z,16.21
2022-10-28T06:59:37.323Z,16.18
2022-10-28T07:02:04.755Z,16.26
2022-10-28T07:04:33.006Z,16.31
2022-10-28T07:07:06.522Z,16.37
2022-10-28T07:09:40.342Z,16.37
2022-10-28T07:12:38.980Z,16.44
2022-10-28T07:15:14.124Z,16.45
2022-10-28T07:17:49.608Z,16.56
2022-10-28T07:20:18.995Z,16.61
2022-10-28T07:22:48.192Z,16.72
2022-10-28T07:25:15.022Z,16.53
2022-10-28T07:30:38.759Z,16.83
2022-10-28T07:33:19.920Z,17.01
2022-10-28T07:35:53.419Z,16.79
2022-10-28T07:41:13.235Z,17.21
2022-10-28T07:43:51.542Z,17.45
2022-10-28T07:49:28.229Z,17.43
2022-10-28T07:59:49.842Z,17.59
2022-10-28T08:05:34.275Z,17.90
2022-10-28T08:08:10.010Z,18.00
2022-10-28T08:13:43.644Z,18.28
2022-10-28T08:16:26.697Z,18.52
2022-10-28T08:19:12.301Z,18.70
2022-10-28T08:21:44.673Z,18.60
2022-10-28T08:24:34.892Z,18.57
2022-10-28T08:27:01.956Z,18.78
2022-10-28T08:32:27.551Z,18.94
2022-10-28T08:37:56.385Z,19.14
2022-10-28T08:40:33.077Z,19.26
2022-10-28T08:43:30.377Z,19.41
2022-10-28T08:47:15.574Z,19.61
2022-10-28T08:52:48.838Z,19.85
2022-10-28T08:55:39.647Z,19.71
2022-10-28T08:58:32.742Z,20.06
2022-10-28T09:01:01.628Z,20.17
2022-10-28T09:03:39.247Z,20.39
2022-10-28T09:06:10.998Z,20.53
2022-10-28T09:08:41.548Z,20.58
2022-10-28T09:11:26.272Z,20.47
2022-10-28T09:14:09.687Z,20.68
2022-10-28T09:16:49.614Z,20.93
2022-10-28T09:19:38.684Z,21.31
2022-10-28T09:22:10.985Z,21.50
2022-10-28T09:25:05.227Z,21.42
2022-10-28T09:27:43.256Z,21.82
2022-10-28T09:30:27.142Z,22.00
2022-10-28T09:33:06.845Z,21.91
2022-10-28T09:35:43.217Z,22.28
2022-10-28T09:38:24.164Z,22.33
2022-10-28T09:41:11.921Z,22.58
2022-10-28T09:46:40.884Z,22.60
2022-10-28T09:49:39.740Z,22.96
2022-10-28T09:52:18.920Z,23.09
2022-10-28T09:54:52.916Z,23.10
2022-10-28T09:57:27.370Z,22.75
2022-10-28T09:59:55.634Z,22.94
2022-10-28T10:02:29.718Z,23.15
2022-10-28T10:04:57.105Z,23.27
2022-10-28T10:07:35.217Z,23.57
2022-10-28T10:10:09.137Z,23.64
2022-10-28T10:12:42.068Z,23.76
2022-10-28T10:15:18.216Z,23.87
2022-10-28T10:17:48.282Z,24.00
2022-10-28T10:20:23.369Z,24.05
2022-10-28T10:22:51.843Z,24.17
2022-10-28T10:25:18.873Z,24.16
2022-10-28T10:28:08.783Z,23.90
2022-10-28T10:30:46.796Z,24.08
2022-10-28T10:33:26.753Z,24.36
2022-10-28T10:36:18.446Z,24.39
2022-10-28T10:39:00.668Z,24.52
2022-10-28T10:41:40.635Z,24.62
2022-10-28T10:44:22.822Z,24.66
2022-10-28T10:47:05.980Z,24.76
2022-10-28T10:49:38.499Z,24.78
2022-10-28T10:52:10.980Z,24.85
2022-10-28T10:54:40.712Z,25.07
2022-10-28T10:57:21.330Z,25.36
2022-10-28T10:59:53.833Z,25.24
2022-10-28T11:02:30.928Z,25.28
2022-10-28T11:05:09.363Z,25.34
2022-10-28T11:07:45.671Z,25.40
2022-10-28T11:10:33.531Z,25.50
2022-10-28T11:13:09.289Z,25.45
2022-10-28T11:15:39.406Z,25.52
2022-10-28T11:18:08.917Z,25.32
2022-10-28T11:20:56.848Z,25.12
2022-10-28T11:23:35.870Z,25.32
2022-10-28T11:26:06.970Z,25.18
2022-10-28T11:29:01.423Z,25.23
2022-10-28T11:31:46.330Z,25.48
2022-10-28T11:34:26.820Z,25.69
2022-10-28T11:37:15.170Z,26.18
2022-10-28T11:40:18.630Z,26.41
2022-10-28T11:43:03.518Z,26.66
2022-10-28T11:46:05.368Z,26.80
2022-10-28T11:48:58.932Z,26.56
2022-10-28T11:51:51.445Z,26.72
2022-10-28T11:54:32.519Z,26.69
2022-10-28T11:57:04.096Z,26.81
2022-10-28T11:59:59.223Z,26.86
2022-10-28T12:02:53.342Z,26.65
2022-10-28T12:05:45.396Z,26.35
2022-10-28T12:08:43.930Z,26.38
2022-10-28T12:11:29.480Z,26.44
2022-10-28T12:14:18.624Z,26.42
2022-10-28T12:17:05.589Z,26.24
2022-10-28T12:19:43.159Z,26.31
2022-10-28T12:22:19.841Z,26.22
2022-10-28T12:24:50.054Z,26.08
2022-10-28T12:27:26.334Z,26.11
2022-10-28T12:29:56.333Z,26.18
2022-10-28T12:32:30.370Z,26.21
2022-10-28T12:35:12.080Z,26.38
2022-10-28T12:38:06.332Z,26.40
2022-10-28T12:40:39.850Z,26.39
2022-10-28T12:43:30.115Z,26.36
2022-10-28T12:45:57.159Z,26.41
2022-10-28T12:48:46.457Z,26.31
2022-10-28T12:51:40.401Z,26.31
2022-10-28T12:54:21.921Z,26.23
2022-10-28T12:56:56.580Z,26.30
2022-10-28T12:59:44.617Z,26.24
2022-10-28T13:02:20.122Z,26.23
2022-10-28T13:04:46.795Z,26.04
2022-10-28T13:07:34.322Z,25.98
2022-10-28T13:10:18.046Z,25.90
2022-10-28T13:13:08.083Z,25.91
2022-10-28T13:15:59.032Z,25.81
2022-10-28T13:18:38.973Z,25.85
2022-10-28T13:21:12.687Z,25.68
2022-10-28T13:24:12.548Z,25.78
2022-10-28T13:26:42.831Z,25.82
2022-10-28T13:29:20.761Z,25.77
2022-10-28T13:31:48.034Z,25.68
2022-10-28T13:34:16.848Z,25.63
2022-10-28T13:36:57.333Z,25.65
2022-10-28T13:39:31.689Z,25.67
2022-10-28T13:42:13.633Z,25.52
2022-10-28T13:44:53.028Z,25.51
2022-10-28T13:47:31.143Z,25.51
2022-10-28T13:50:07.577Z,25.49
2022-10-28T13:52:45.759Z,25.54
2022-10-28T13:55:43.825Z,25.50
2022-10-28T13:58:26.394Z,25.50
2022-10-28T14:00:55.908Z,25.44
2022-10-28T14:03:25.538Z,25.39
2022-10-28T14:05:57.814Z,25.34
2022-10-28T14:08:24.629Z,25.29
2022-10-28T14:11:22.566Z,25.16
2022-10-28T14:14:02.537Z,25.18
2022-10-28T14:16:37.264Z,25.19
2022-10-28T14:19:10.801Z,25.06
2022-10-28T14:21:45.581Z,25.05
2022-10-28T14:24:15.371Z,24.99
2022-10-28T14:27:41.174Z,24.95
2022-10-28T14:30:21.799Z,24.99
2022-10-28T14:32:49.567Z,24.95
2022-10-28T14:35:17.563Z,24.89
2022-10-28T14:38:17.671Z,24.75
2022-10-28T14:40:50.817Z,24.70
2022-10-28T14:43:59.566Z,24.66
2022-10-28T14:46:33.926Z,24.53
2022-10-28T14:49:04.309Z,24.52
2022-10-28T14:51:47.746Z,24.46
2022-10-28T14:54:40.902Z,24.30
2022-10-28T14:57:08.232Z,24.09
2022-10-28T14:59:43.271Z,23.72
2022-10-28T15:02:15.951Z,23.71
2022-10-28T15:04:45.058Z,23.73
2022-10-28T15:07:14.160Z,23.66
2022-10-28T15:09:43.352Z,23.52
2022-10-28T15:12:17.247Z,23.60
2022-10-28T15:14:52.248Z,23.48
2022-10-28T15:17:27.450Z,23.52
2022-10-28T15:19:56.186Z,23.32
2022-10-28T15:22:29.015Z,23.18
2022-10-28T15:25:06.535Z,23.08
2022-10-28T15:27:35.059Z,23.08
2022-10-28T15:30:03.221Z,22.90
2022-10-28T15:32:34.751Z,22.82
2022-10-28T15:35:30.567Z,22.70
2022-10-28T15:38:00.258Z,22.52
2022-10-28T15:40:34.402Z,22.39
2022-10-28T15:43:01.271Z,22.49
2022-10-28T15:45:33.822Z,22.45
2022-10-28T15:48:10.843Z,22.25
2022-10-28T15:50:37.459Z,22.14
2022-10-28T15:53:10.023Z,22.09
2022-10-28T15:58:35.769Z,21.90
2022-10-28T16:01:02.563Z,21.77
2022-10-28T16:03:40.920Z,21.51
2022-10-28T16:06:21.263Z,21.61
2022-10-28T16:08:48.193Z,21.57
2022-10-28T16:11:18.972Z,21.53
2022-10-28T16:13:48.105Z,21.53
2022-10-28T16:16:35.854Z,21.48
2022-10-28T16:19:10.586Z,21.48
2022-10-28T16:21:40.767Z,21.44
2022-10-28T16:24:09.206Z,21.51
2022-10-28T16:26:35.666Z,21.54
2022-10-28T16:29:02.181Z,21.60
2022-10-28T16:31:30.736Z,21.59
2022-10-28T16:33:58.380Z,21.53
2022-10-28T16:36:26.401Z,21.51
2022-10-28T16:39:01.692Z,21.32
2022-10-28T16:41:28.864Z,21.27
2022-10-28T16:43:56.156Z,21.16
2022-10-28T16:46:22.679Z,21.08
2022-10-28T16:48:49.072Z,21.05
2022-10-28T16:51:17.536Z,21.10
2022-10-28T16:53:47.496Z,21.12
2022-10-28T16:56:17.679Z,21.22
2022-10-28T16:58:44.168Z,21.11
2022-10-28T17:01:11.355Z,21.11
2022-10-28T17:03:37.878Z,21.13
2022-10-28T17:06:04.391Z,21.12
2022-10-28T17:09:00.735Z,21.10
2022-10-28T17:11:18.983Z,21.10
2022-10-28T17:13:45.494Z,21.09
2022-10-28T17:16:12.947Z,21.05
2022-10-28T17:18:39.479Z,21.19
2022-10-28T17:21:06.193Z,21.32
2022-10-28T17:23:32.602Z,21.38
2022-10-28T17:26:01.979Z,21.51
2022-10-28T17:28:28.927Z,21.47
2022-10-28T17:31:05.672Z,21.66
2022-10-28T17:33:32.311Z,21.54
2022-10-28T17:36:07.825Z,21.66
2022-10-28T17:38:34.499Z,21.93
2022-10-28T17:41:00.928Z,21.93
2022-10-28T17:43:28.354Z,22.07
2022-10-28T17:46:04.133Z,22.18
2022-10-28T17:48:30.579Z,22.20
2022-10-28T17:50:57.316Z,22.33
2022-10-28T17:53:24.127Z,22.08
2022-10-28T17:56:04.018Z,22.16
2022-10-28T17:58:30.722Z,22.28
2022-10-28T18:01:05.302Z,22.21
2022-10-28T18:03:38.155Z,22.15
2022-10-28T18:06:07.263Z,22.24
2022-10-28T18:08:34.946Z,22.37
2022-10-28T18:11:01.500Z,22.38
2022-10-28T18:13:32.592Z,22.24
2022-10-28T18:16:13.874Z,22.19
2022-10-28T18:18:42.540Z,22.09
2022-10-28T18:21:11.108Z,21.96
2022-10-28T18:23:37.856Z,22.02
2022-10-28T18:26:06.388Z,22.16
2022-10-28T18:28:34.850Z,22.21
2022-10-28T18:31:05.983Z,22.30
2022-10-28T18:33:33.488Z,22.30
2022-10-28T18:36:07.004Z,22.32
2022-10-28T18:38:33.966Z,22.37
2022-10-28T18:41:00.376Z,22.23
2022-10-28T18:43:26.924Z,22.28
2022-10-28T18:45:53.462Z,22.32
2022-10-28T18:48:19.917Z,22.21
2022-10-28T18:50:57.193Z,22.29
2022-10-28T18:53:23.905Z,22.20
2022-10-28T18:55:50.540Z,22.12
2022-10-28T18:58:17.381Z,22.11
2022-10-28T19:00:43.808Z,22.07
2022-10-28T19:03:21.303Z,21.95
2022-10-28T19:05:48.060Z,21.89
2022-10-28T19:08:14.839Z,21.82
2022-10-28T19:10:41.636Z,21.76
2022-10-28T19:13:08.059Z,21.93
2022-10-28T19:15:40.010Z,21.90
2022-10-28T19:18:06.496Z,21.75
2022-10-28T19:20:32.946Z,21.78
2022-10-28T19:22:59.777Z,21.72
2022-10-28T19:25:26.331Z,21.65
2022-10-28T19:27:52.721Z,21.55
2022-10-28T19:30:19.211Z,21.58
2022-10-28T19:32:45.637Z,21.53
2022-10-28T19:35:12.023Z,21.43
2022-10-28T19:37:38.675Z,21.58
2022-10-28T19:40:05.500Z,21.69
2022-10-28T19:42:31.920Z,21.65
2022-10-28T19:45:00.860Z,21.77
2022-10-28T19:47:27.713Z,21.47
2022-10-28T19:49:54.158Z,21.59
2022-10-28T19:52:20.562Z,21.51
2022-10-28T19:54:46.973Z,21.53
2022-10-28T19:59:44.828Z,21.53
2022-10-28T20:02:11.809Z,21.48
2022-10-28T20:04:39.318Z,21.41
2022-10-28T20:07:05.760Z,21.33
2022-10-28T20:09:32.235Z,21.25
2022-10-28T20:11:58.723Z,21.43
2022-10-28T20:14:25.245Z,21.56
2022-10-28T20:16:51.767Z,21.49
2022-10-28T20:19:18.226Z,21.48
2022-10-28T20:21:45.170Z,21.33
2022-10-28T20:24:11.565Z,21.58
2022-10-28T20:26:38.485Z,21.31
2022-10-28T20:29:06.986Z,21.40
2022-10-28T20:31:33.970Z,21.05
2022-10-28T20:34:03.873Z,20.98
2022-10-28T20:36:34.411Z,20.84
2022-10-28T20:39:08.832Z,20.73
2022-10-28T20:41:36.886Z,20.62
2022-10-28T20:44:04.950Z,20.52
2022-10-28T20:46:32.305Z,20.53
2022-10-28T20:49:00.778Z,20.62
2022-10-28T20:51:29.370Z,20.71
2022-10-28T20:53:55.902Z,20.87
2022-10-28T20:56:25.735Z,20.87
2022-10-28T20:58:53.407Z,21.01
2022-10-28T21:01:34.589Z,20.94
2022-10-28T21:04:03.364Z,20.95
2022-10-28T21:06:30.765Z,21.05
2022-10-28T21:08:57.527Z,21.13
2022-10-28T21:11:25.204Z,21.13
2022-10-28T21:13:57.957Z,21.08
2022-10-28T21:16:25.031Z,21.06
2022-10-28T21:18:52.125Z,20.94
2022-10-28T21:21:19.658Z,20.86
2022-10-28T21:23:46.301Z,20.83
2022-10-28T21:26:13.267Z,20.78
2022-10-28T21:28:42.727Z,20.71
2022-10-28T21:31:13.993Z,20.56
2022-10-28T21:33:41.482Z,20.45
2022-10-28T21:36:11.472Z,20.48
2022-10-28T21:38:37.903Z,20.42
2022-10-28T21:41:11.293Z,20.51
2022-10-28T21:43:39.934Z,20.40
2022-10-28T21:46:07.175Z,20.41
2022-10-28T21:48:35.169Z,20.46
2022-10-28T21:51:06.310Z,20.38
2022-10-28T21:53:37.345Z,20.31
2022-10-28T21:56:12.457Z,20.44
2022-10-28T21:58:43.303Z,20.39
2022-10-28T22:01:14.909Z,20.25
2022-10-28T22:03:41.714Z,20.26
2022-10-28T22:06:08.780Z,20.24
2022-10-28T22:08:35.552Z,20.23
2022-10-28T22:11:12.693Z,20.20
2022-10-28T22:13:39.268Z,20.12
2022-10-28T22:16:07.921Z,20.05
2022-10-28T22:18:36.319Z,20.18
2022-10-28T22:21:16.340Z,20.10
2022-10-28T22:23:43.055Z,20.14
2022-10-28T22:26:11.996Z,19.92
2022-10-28T22:28:38.996Z,19.97
2022-10-28T22:31:07.870Z,19.91
2022-10-28T22:33:34.692Z,19.85
2022-10-28T22:36:03.494Z,19.82
2022-10-28T22:38:30.080Z,19.63
2022-10-28T22:41:12.008Z,19.49
2022-10-28T22:43:38.880Z,19.45
2022-10-28T22:46:06.159Z,19.41
2022-10-28T22:48:33.273Z,19.43
2022-10-28T22:50:59.902Z,19.32
2022-10-28T22:53:26.771Z,19.30
2022-10-28T22:55:53.781Z,19.12
2022-10-28T22:58:20.939Z,19.04
2022-10-28T23:00:47.491Z,18.94
2022-10-28T23:03:14.453Z,18.89
2022-10-28T23:05:41.397Z,18.80
2022-10-28T23:08:15.683Z,18.74
2022-10-28T23:10:42.252Z,18.77
2022-10-28T23:13:11.726Z,18.72
2022-10-28T23:15:38.177Z,18.65
2022-10-28T23:18:04.618Z,18.92
2022-10-28T23:20:31.068Z,18.73
2022-10-28T23:22:57.551Z,18.84
2022-10-28T23:25:24.028Z,18.84
2022-10-28T23:27:50.711Z,19.03
2022-10-28T23:30:17.294Z,19.00
2022-10-28T23:32:43.983Z,19.13
2022-10-28T23:35:10.406Z,19.05
2022-10-28T23:37:36.867Z,19.15
2022-10-28T23:40:05.066Z,19.18
2022-10-28T23:42:31.627Z,19.15
2022-10-28T23:44:58.077Z,19.23
2022-10-28T23:47:24.584Z,19.07
2022-10-28T23:49:50.999Z,19.10
2022-10-28T23:52:17.511Z,19.01
2022-10-28T23:54:44.086Z,18.95
2022-10-28T23:57:15.886Z,18.90
2022-10-28T23:59:42.381Z,18.74
